sensor_id;sensor_type;location;lat;lon;timestamp;temperature;humidity
9425;DHT22;17139;52.140;11.636;2024-03-08T00:00:22;0.80;54.50
9425;DHT22;17139;52.140;11.636;2024-03-08T00:02:48;0.70;54.40
9425;DHT22;17139;52.140;11.636;2024-03-08T00:05:15;0.80;54.50
9425;DHT22;17139;52.140;11.636;2024-03-08T00:07:41;0.80;54.00
9425;DHT22;17139;52.140;11.636;2024-03-08T00:10:09;0.80;54.20
9425;DHT22;17139;52.140;11.636;2024-03-08T00:12:35;1.00;54.40
9425;DHT22;17139;52.140;11.636;2024-03-08T00:15:02;0.90;53.80
9425;DHT22;17139;52.140;11.636;2024-03-08T00:17:28;0.80;54.00
9425;DHT22;17139;52.140;11.636;2024-03-08T00:19:54;0.70;54.10
9425;DHT22;17139;52.140;11.636;2024-03-08T00:22:20;0.60;54.20
9425;DHT22;17139;52.140;11.636;2024-03-08T00:24:46;0.60;54.30
9425;DHT22;17139;52.140;11.636;2024-03-08T00:27:11;0.50;54.40
9425;DHT22;17139;52.140;11.636;2024-03-08T00:29:37;0.50;54.40
9425;DHT22;17139;52.140;11.636;2024-03-08T00:32:05;0.50;54.50
9425;DHT22;17139;52.140;11.636;2024-03-08T00:34:30;0.40;54.40
9425;DHT22;17139;52.140;11.636;2024-03-08T00:36:56;0.40;54.40
9425;DHT22;17139;52.140;11.636;2024-03-08T00:39:22;0.40;54.40
9425;DHT22;17139;52.140;11.636;2024-03-08T00:41:48;0.30;54.30
9425;DHT22;17139;52.140;11.636;2024-03-08T00:44:14;0.30;54.30
9425;DHT22;17139;52.140;11.636;2024-03-08T00:46:39;0.90;54.30
9425;DHT22;17139;52.140;11.636;2024-03-08T00:49:06;0.80;53.60
9425;DHT22;17139;52.140;11.636;2024-03-08T00:51:32;0.60;53.50
9425;DHT22;17139;52.140;11.636;2024-03-08T00:53:58;1.00;53.90
9425;DHT22;17139;52.140;11.636;2024-03-08T00:56:25;0.90;53.40
9425;DHT22;17139;52.140;11.636;2024-03-08T00:58:51;0.70;53.60
9425;DHT22;17139;52.140;11.636;2024-03-08T01:01:18;0.60;53.80
9425;DHT22;17139;52.140;11.636;2024-03-08T01:03:44;0.50;54.10
9425;DHT22;17139;52.140;11.636;2024-03-08T01:06:11;0.40;54.20
9425;DHT22;17139;52.140;11.636;2024-03-08T01:08:37;0.40;54.30
9425;DHT22;17139;52.140;11.636;2024-03-08T01:11:03;0.30;54.30
9425;DHT22;17139;52.140;11.636;2024-03-08T01:13:29;0.30;54.30
9425;DHT22;17139;52.140;11.636;2024-03-08T01:15:55;0.20;54.30
9425;DHT22;17139;52.140;11.636;2024-03-08T01:18:21;0.20;54.40
9425;DHT22;17139;52.140;11.636;2024-03-08T01:20:46;0.20;54.40
9425;DHT22;17139;52.140;11.636;2024-03-08T01:23:14;0.20;54.40
9425;DHT22;17139;52.140;11.636;2024-03-08T01:25:40;0.10;54.40
9425;DHT22;17139;52.140;11.636;2024-03-08T01:28:06;0.10;54.30
9425;DHT22;17139;52.140;11.636;2024-03-08T01:30:31;0.10;54.20
9425;DHT22;17139;52.140;11.636;2024-03-08T01:32:57;0.20;54.40
9425;DHT22;17139;52.140;11.636;2024-03-08T01:35:23;0.20;54.00
9425;DHT22;17139;52.140;11.636;2024-03-08T01:37:49;0.10;54.10
9425;DHT22;17139;52.140;11.636;2024-03-08T01:40:16;0.10;54.10
9425;DHT22;17139;52.140;11.636;2024-03-08T01:42:42;0.00;54.10
9425;DHT22;17139;52.140;11.636;2024-03-08T01:45:08;0.00;54.10
9425;DHT22;17139;52.140;11.636;2024-03-08T01:47:34;0.00;54.20
9425;DHT22;17139;52.140;11.636;2024-03-08T01:50:00;0.00;54.20
9425;DHT22;17139;52.140;11.636;2024-03-08T01:52:27;0.00;54.20
9425;DHT22;17139;52.140;11.636;2024-03-08T01:54:54;-0.10;54.10
9425;DHT22;17139;52.140;11.636;2024-03-08T01:57:21;-0.10;54.10
9425;DHT22;17139;52.140;11.636;2024-03-08T01:59:47;-0.10;54.10
9425;DHT22;17139;52.140;11.636;2024-03-08T02:02:15;-0.10;54.10
9425;DHT22;17139;52.140;11.636;2024-03-08T02:04:42;-0.10;54.10
9425;DHT22;17139;52.140;11.636;2024-03-08T02:07:08;0.10;54.20
9425;DHT22;17139;52.140;11.636;2024-03-08T02:09:34;0.10;53.70
9425;DHT22;17139;52.140;11.636;2024-03-08T02:12:00;0.00;53.80
9425;DHT22;17139;52.140;11.636;2024-03-08T02:14:27;0.50;53.70
9425;DHT22;17139;52.140;11.636;2024-03-08T02:16:53;0.40;53.20
9425;DHT22;17139;52.140;11.636;2024-03-08T02:19:19;0.20;53.30
9425;DHT22;17139;52.140;11.636;2024-03-08T02:21:46;0.10;53.80
9425;DHT22;17139;52.140;11.636;2024-03-08T02:24:12;-0.10;53.90
9425;DHT22;17139;52.140;11.636;2024-03-08T02:26:38;-0.10;54.00
9425;DHT22;17139;52.140;11.636;2024-03-08T02:29:04;-0.10;54.10
9425;DHT22;17139;52.140;11.636;2024-03-08T02:31:29;-0.20;54.00
9425;DHT22;17139;52.140;11.636;2024-03-08T02:33:55;-0.20;54.00
9425;DHT22;17139;52.140;11.636;2024-03-08T02:36:21;-0.20;54.00
9425;DHT22;17139;52.140;11.636;2024-03-08T02:38:48;-0.30;54.00
9425;DHT22;17139;52.140;11.636;2024-03-08T02:41:14;-0.30;54.00
9425;DHT22;17139;52.140;11.636;2024-03-08T02:43:40;-0.30;54.00
9425;DHT22;17139;52.140;11.636;2024-03-08T02:46:06;-0.30;54.00
9425;DHT22;17139;52.140;11.636;2024-03-08T02:48:32;0.20;54.20
9425;DHT22;17139;52.140;11.636;2024-03-08T02:50:57;0.10;53.20
9425;DHT22;17139;52.140;11.636;2024-03-08T02:53:23;-0.10;53.30
9425;DHT22;17139;52.140;11.636;2024-03-08T02:55:50;0.30;53.30
9425;DHT22;17139;52.140;11.636;2024-03-08T02:58:16;0.30;53.00
9425;DHT22;17139;52.140;11.636;2024-03-08T03:00:42;0.00;53.10
9425;DHT22;17139;52.140;11.636;2024-03-08T03:03:08;-0.10;53.40
9425;DHT22;17139;52.140;11.636;2024-03-08T03:05:34;-0.20;53.60
9425;DHT22;17139;52.140;11.636;2024-03-08T03:07:59;-0.30;53.80
9425;DHT22;17139;52.140;11.636;2024-03-08T03:10:25;-0.40;53.90
9425;DHT22;17139;52.140;11.636;2024-03-08T03:12:53;-0.40;54.00
9425;DHT22;17139;52.140;11.636;2024-03-08T03:15:19;-0.50;54.00
9425;DHT22;17139;52.140;11.636;2024-03-08T03:17:46;-0.50;54.10
9425;DHT22;17139;52.140;11.636;2024-03-08T03:20:12;-0.60;54.00
9425;DHT22;17139;52.140;11.636;2024-03-08T03:22:38;-0.60;54.00
9425;DHT22;17139;52.140;11.636;2024-03-08T03:25:05;-0.60;54.00
9425;DHT22;17139;52.140;11.636;2024-03-08T03:27:31;-0.70;54.00
9425;DHT22;17139;52.140;11.636;2024-03-08T03:29:58;-0.70;54.00
9425;DHT22;17139;52.140;11.636;2024-03-08T03:32:24;0.20;53.80
9425;DHT22;17139;52.140;11.636;2024-03-08T03:34:50;0.00;53.00
9425;DHT22;17139;52.140;11.636;2024-03-08T03:37:15;-0.30;53.10
9425;DHT22;17139;52.140;11.636;2024-03-08T03:39:41;0.40;53.30
9425;DHT22;17139;52.140;11.636;2024-03-08T03:42:07;0.10;52.60
9425;DHT22;17139;52.140;11.636;2024-03-08T03:44:33;-0.10;53.00
9425;DHT22;17139;52.140;11.636;2024-03-08T03:47:00;-0.40;53.50
9425;DHT22;17139;52.140;11.636;2024-03-08T03:49:26;-0.50;53.90
9425;DHT22;17139;52.140;11.636;2024-03-08T03:51:52;-0.70;54.10
9425;DHT22;17139;52.140;11.636;2024-03-08T03:54:17;-0.70;54.20
9425;DHT22;17139;52.140;11.636;2024-03-08T03:56:43;-0.80;54.30
9425;DHT22;17139;52.140;11.636;2024-03-08T03:59:09;-0.90;54.30
9425;DHT22;17139;52.140;11.636;2024-03-08T04:01:35;-0.90;54.40
9425;DHT22;17139;52.140;11.636;2024-03-08T04:04:02;-0.90;54.50
9425;DHT22;17139;52.140;11.636;2024-03-08T04:06:28;-0.90;54.50
9425;DHT22;17139;52.140;11.636;2024-03-08T04:08:54;-1.00;54.40
9425;DHT22;17139;52.140;11.636;2024-03-08T04:11:20;-1.00;54.40
9425;DHT22;17139;52.140;11.636;2024-03-08T04:13:45;-1.10;54.40
9425;DHT22;17139;52.140;11.636;2024-03-08T04:16:13;-0.20;54.30
9425;DHT22;17139;52.140;11.636;2024-03-08T04:18:39;-0.40;53.20
9425;DHT22;17139;52.140;11.636;2024-03-08T04:21:06;-0.50;53.60
9425;DHT22;17139;52.140;11.636;2024-03-08T04:23:32;-0.70;53.70
9425;DHT22;17139;52.140;11.636;2024-03-08T04:25:58;-0.80;53.90
9425;DHT22;17139;52.140;11.636;2024-03-08T04:28:24;-0.90;54.10
9425;DHT22;17139;52.140;11.636;2024-03-08T04:30:50;-1.00;54.20
9425;DHT22;17139;52.140;11.636;2024-03-08T04:33:15;-1.10;54.30
9425;DHT22;17139;52.140;11.636;2024-03-08T04:35:41;-1.10;54.40
9425;DHT22;17139;52.140;11.636;2024-03-08T04:38:08;-1.10;54.40
9425;DHT22;17139;52.140;11.636;2024-03-08T04:40:34;-1.10;54.40
9425;DHT22;17139;52.140;11.636;2024-03-08T04:43:00;-1.20;54.30
9425;DHT22;17139;52.140;11.636;2024-03-08T04:45:26;-1.20;54.40
9425;DHT22;17139;52.140;11.636;2024-03-08T04:47:52;-1.20;54.30
9425;DHT22;17139;52.140;11.636;2024-03-08T04:50:17;-1.20;54.40
9425;DHT22;17139;52.140;11.636;2024-03-08T04:52:43;-1.20;54.40
9425;DHT22;17139;52.140;11.636;2024-03-08T04:55:11;-1.20;54.50
9425;DHT22;17139;52.140;11.636;2024-03-08T04:57:36;-1.20;54.30
9425;DHT22;17139;52.140;11.636;2024-03-08T05:00:02;-1.20;54.40
9425;DHT22;17139;52.140;11.636;2024-03-08T05:02:28;-1.00;54.60
9425;DHT22;17139;52.140;11.636;2024-03-08T05:04:54;-1.00;54.00
9425;DHT22;17139;52.140;11.636;2024-03-08T05:07:20;-1.10;54.00
9425;DHT22;17139;52.140;11.636;2024-03-08T05:09:46;-1.10;54.10
9425;DHT22;17139;52.140;11.636;2024-03-08T05:12:13;-1.20;54.10
9425;DHT22;17139;52.140;11.636;2024-03-08T05:14:39;-1.20;54.20
9425;DHT22;17139;52.140;11.636;2024-03-08T05:17:05;-1.20;54.20
9425;DHT22;17139;52.140;11.636;2024-03-08T05:19:30;-1.20;54.20
9425;DHT22;17139;52.140;11.636;2024-03-08T05:21:56;-1.30;54.20
9425;DHT22;17139;52.140;11.636;2024-03-08T05:24:22;-1.30;54.20
9425;DHT22;17139;52.140;11.636;2024-03-08T05:26:48;-1.10;54.60
9425;DHT22;17139;52.140;11.636;2024-03-08T05:29:15;-1.10;54.00
9425;DHT22;17139;52.140;11.636;2024-03-08T05:31:46;-1.10;54.10
9425;DHT22;17139;52.140;11.636;2024-03-08T05:34:12;-0.40;54.30
9425;DHT22;17139;52.140;11.636;2024-03-08T05:36:37;-0.60;53.40
9425;DHT22;17139;52.140;11.636;2024-03-08T05:39:03;-0.80;53.60
9425;DHT22;17139;52.140;11.636;2024-03-08T05:41:29;-0.10;53.90
9425;DHT22;17139;52.140;11.636;2024-03-08T05:43:55;-0.30;53.00
9425;DHT22;17139;52.140;11.636;2024-03-08T05:46:22;-0.60;53.50
9425;DHT22;17139;52.140;11.636;2024-03-08T05:48:48;-0.80;53.80
9425;DHT22;17139;52.140;11.636;2024-03-08T05:51:14;-1.00;54.00
9425;DHT22;17139;52.140;11.636;2024-03-08T05:53:39;-1.00;54.30
9425;DHT22;17139;52.140;11.636;2024-03-08T05:56:06;-1.10;54.40
9425;DHT22;17139;52.140;11.636;2024-03-08T05:58:31;-1.10;54.40
9425;DHT22;17139;52.140;11.636;2024-03-08T06:00:57;-1.20;54.40
9425;DHT22;17139;52.140;11.636;2024-03-08T06:03:40;-1.20;54.50
9425;DHT22;17139;52.140;11.636;2024-03-08T06:06:06;-1.20;54.60
9425;DHT22;17139;52.140;11.636;2024-03-08T06:08:31;-1.20;54.60
9425;DHT22;17139;52.140;11.636;2024-03-08T06:10:57;-1.20;54.50
9425;DHT22;17139;52.140;11.636;2024-03-08T06:13:23;-1.20;54.50
9425;DHT22;17139;52.140;11.636;2024-03-08T06:15:49;-1.20;54.40
9425;DHT22;17139;52.140;11.636;2024-03-08T06:18:15;-1.20;54.40
9425;DHT22;17139;52.140;11.636;2024-03-08T06:20:42;-0.50;54.80
9425;DHT22;17139;52.140;11.636;2024-03-08T06:23:08;-0.50;53.70
9425;DHT22;17139;52.140;11.636;2024-03-08T06:25:33;-0.70;53.70
9425;DHT22;17139;52.140;11.636;2024-03-08T06:27:59;-0.70;53.90
9425;DHT22;17139;52.140;11.636;2024-03-08T06:30:25;-0.80;54.00
9425;DHT22;17139;52.140;11.636;2024-03-08T06:32:51;-0.80;54.20
9425;DHT22;17139;52.140;11.636;2024-03-08T06:35:17;-0.80;54.20
9425;DHT22;17139;52.140;11.636;2024-03-08T06:37:44;-0.80;54.20
9425;DHT22;17139;52.140;11.636;2024-03-08T06:40:11;-0.70;54.20
9425;DHT22;17139;52.140;11.636;2024-03-08T06:42:37;-0.70;54.20
9425;DHT22;17139;52.140;11.636;2024-03-08T06:45:03;-0.70;54.10
9425;DHT22;17139;52.140;11.636;2024-03-08T06:47:29;-0.60;54.20
9425;DHT22;17139;52.140;11.636;2024-03-08T06:49:55;-0.60;54.10
9425;DHT22;17139;52.140;11.636;2024-03-08T06:52:20;-0.60;54.10
9425;DHT22;17139;52.140;11.636;2024-03-08T06:54:48;-0.60;54.00
9425;DHT22;17139;52.140;11.636;2024-03-08T06:57:14;-0.50;54.00
9425;DHT22;17139;52.140;11.636;2024-03-08T06:59:39;-0.30;54.30
9425;DHT22;17139;52.140;11.636;2024-03-08T07:02:05;-0.20;53.80
9425;DHT22;17139;52.140;11.636;2024-03-08T07:04:31;-0.20;53.70
9425;DHT22;17139;52.140;11.636;2024-03-08T07:06:57;-0.20;53.80
9425;DHT22;17139;52.140;11.636;2024-03-08T07:09:23;-0.20;53.90
9425;DHT22;17139;52.140;11.636;2024-03-08T07:11:50;-0.10;53.90
9425;DHT22;17139;52.140;11.636;2024-03-08T07:14:16;-0.10;53.80
9425;DHT22;17139;52.140;11.636;2024-03-08T07:16:42;-0.10;53.80
9425;DHT22;17139;52.140;11.636;2024-03-08T07:19:08;0.00;53.80
9425;DHT22;17139;52.140;11.636;2024-03-08T07:21:33;0.00;53.70
9425;DHT22;17139;52.140;11.636;2024-03-08T07:23:59;0.00;53.60
9425;DHT22;17139;52.140;11.636;2024-03-08T07:26:25;0.10;53.70
9425;DHT22;17139;52.140;11.636;2024-03-08T07:28:52;0.20;53.70
9425;DHT22;17139;52.140;11.636;2024-03-08T07:31:18;0.20;53.60
9425;DHT22;17139;52.140;11.636;2024-03-08T07:33:44;0.80;53.70
9425;DHT22;17139;52.140;11.636;2024-03-08T07:36:10;0.80;53.00
9425;DHT22;17139;52.140;11.636;2024-03-08T07:38:35;0.80;53.10
9425;DHT22;17139;52.140;11.636;2024-03-08T07:41:01;0.80;53.30
9425;DHT22;17139;52.140;11.636;2024-03-08T07:43:27;0.80;53.40
9425;DHT22;17139;52.140;11.636;2024-03-08T07:45:54;0.90;53.40
9425;DHT22;17139;52.140;11.636;2024-03-08T07:48:20;0.90;53.40
9425;DHT22;17139;52.140;11.636;2024-03-08T07:50:46;0.90;53.40
9425;DHT22;17139;52.140;11.636;2024-03-08T07:53:11;1.00;53.40
9425;DHT22;17139;52.140;11.636;2024-03-08T07:55:37;1.00;53.30
9425;DHT22;17139;52.140;11.636;2024-03-08T07:58:03;1.10;53.40
9425;DHT22;17139;52.140;11.636;2024-03-08T08:00:29;1.10;53.30
9425;DHT22;17139;52.140;11.636;2024-03-08T08:02:58;1.20;53.40
9425;DHT22;17139;52.140;11.636;2024-03-08T08:05:24;1.20;53.30
9425;DHT22;17139;52.140;11.636;2024-03-08T08:07:50;1.30;53.30
9425;DHT22;17139;52.140;11.636;2024-03-08T08:10:16;2.10;53.10
9425;DHT22;17139;52.140;11.636;2024-03-08T08:12:42;2.00;52.50
9425;DHT22;17139;52.140;11.636;2024-03-08T08:15:08;2.00;52.80
9425;DHT22;17139;52.140;11.636;2024-03-08T08:17:34;1.90;52.80
9425;DHT22;17139;52.140;11.636;2024-03-08T08:20:01;1.90;52.90
9425;DHT22;17139;52.140;11.636;2024-03-08T08:22:27;1.90;53.10
9425;DHT22;17139;52.140;11.636;2024-03-08T08:24:55;2.00;53.20
9425;DHT22;17139;52.140;11.636;2024-03-08T08:27:21;2.00;53.20
9425;DHT22;17139;52.140;11.636;2024-03-08T08:29:47;2.10;53.30
9425;DHT22;17139;52.140;11.636;2024-03-08T08:32:13;2.10;53.20
9425;DHT22;17139;52.140;11.636;2024-03-08T08:34:38;2.10;53.20
9425;DHT22;17139;52.140;11.636;2024-03-08T08:37:06;2.10;53.20
9425;DHT22;17139;52.140;11.636;2024-03-08T08:39:32;2.30;54.00
9425;DHT22;17139;52.140;11.636;2024-03-08T08:41:57;2.20;53.20
9425;DHT22;17139;52.140;11.636;2024-03-08T08:44:23;2.30;53.20
9425;DHT22;17139;52.140;11.636;2024-03-08T08:46:49;2.40;53.30
9425;DHT22;17139;52.140;11.636;2024-03-08T08:49:15;2.70;53.30
9425;DHT22;17139;52.140;11.636;2024-03-08T08:51:40;2.80;52.90
9425;DHT22;17139;52.140;11.636;2024-03-08T08:54:08;2.70;53.00
9425;DHT22;17139;52.140;11.636;2024-03-08T08:56:33;3.20;53.00
9425;DHT22;17139;52.140;11.636;2024-03-08T08:58:59;3.10;52.70
9425;DHT22;17139;52.140;11.636;2024-03-08T09:01:25;3.00;52.80
9425;DHT22;17139;52.140;11.636;2024-03-08T09:03:51;3.00;53.00
9425;DHT22;17139;52.140;11.636;2024-03-08T09:06:17;3.00;53.20
9425;DHT22;17139;52.140;11.636;2024-03-08T09:08:42;3.10;53.20
9425;DHT22;17139;52.140;11.636;2024-03-08T09:11:10;3.20;53.30
9425;DHT22;17139;52.140;11.636;2024-03-08T09:13:36;3.20;53.30
9425;DHT22;17139;52.140;11.636;2024-03-08T09:16:02;3.30;53.40
9425;DHT22;17139;52.140;11.636;2024-03-08T09:18:28;3.40;54.10
9425;DHT22;17139;52.140;11.636;2024-03-08T09:20:54;3.40;53.30
9425;DHT22;17139;52.140;11.636;2024-03-08T09:23:20;3.50;53.20
9425;DHT22;17139;52.140;11.636;2024-03-08T09:25:46;3.60;53.30
9425;DHT22;17139;52.140;11.636;2024-03-08T09:28:13;3.70;53.20
9425;DHT22;17139;52.140;11.636;2024-03-08T09:30:39;4.00;53.10
9425;DHT22;17139;52.140;11.636;2024-03-08T09:33:05;4.00;52.90
9425;DHT22;17139;52.140;11.636;2024-03-08T09:35:31;4.00;52.90
9425;DHT22;17139;52.140;11.636;2024-03-08T09:37:57;4.40;52.70
9425;DHT22;17139;52.140;11.636;2024-03-08T09:40:23;4.40;52.50
9425;DHT22;17139;52.140;11.636;2024-03-08T09:42:49;4.30;52.70
9425;DHT22;17139;52.140;11.636;2024-03-08T09:45:17;4.30;52.80
9425;DHT22;17139;52.140;11.636;2024-03-08T09:47:43;4.40;53.00
9425;DHT22;17139;52.140;11.636;2024-03-08T09:50:10;4.40;53.00
9425;DHT22;17139;52.140;11.636;2024-03-08T09:52:37;4.40;52.90
9425;DHT22;17139;52.140;11.636;2024-03-08T09:55:05;4.40;52.90
9425;DHT22;17139;52.140;11.636;2024-03-08T09:57:31;4.40;52.90
9425;DHT22;17139;52.140;11.636;2024-03-08T09:59:58;4.40;53.00
9425;DHT22;17139;52.140;11.636;2024-03-08T10:02:25;4.50;53.20
9425;DHT22;17139;52.140;11.636;2024-03-08T10:04:52;4.60;53.20
9425;DHT22;17139;52.140;11.636;2024-03-08T10:07:18;4.60;53.00
9425;DHT22;17139;52.140;11.636;2024-03-08T10:09:44;4.60;53.00
9425;DHT22;17139;52.140;11.636;2024-03-08T10:12:10;4.90;52.50
9425;DHT22;17139;52.140;11.636;2024-03-08T10:14:39;5.00;52.50
9425;DHT22;17139;52.140;11.636;2024-03-08T10:17:05;5.00;52.70
9425;DHT22;17139;52.140;11.636;2024-03-08T10:19:33;5.30;51.60
9425;DHT22;17139;52.140;11.636;2024-03-08T10:21:58;5.30;51.90
9425;DHT22;17139;52.140;11.636;2024-03-08T10:24:24;5.30;52.30
9425;DHT22;17139;52.140;11.636;2024-03-08T10:26:52;5.20;52.40
9425;DHT22;17139;52.140;11.636;2024-03-08T10:29:19;5.20;52.50
9425;DHT22;17139;52.140;11.636;2024-03-08T10:31:44;5.20;52.60
9425;DHT22;17139;52.140;11.636;2024-03-08T10:34:10;5.30;52.70
9425;DHT22;17139;52.140;11.636;2024-03-08T10:36:39;5.30;52.70
9425;DHT22;17139;52.140;11.636;2024-03-08T10:39:12;5.30;52.70
9425;DHT22;17139;52.140;11.636;2024-03-08T10:41:42;5.30;52.80
9425;DHT22;17139;52.140;11.636;2024-03-08T10:44:17;5.30;53.00
9425;DHT22;17139;52.140;11.636;2024-03-08T10:46:59;5.30;52.90
9425;DHT22;17139;52.140;11.636;2024-03-08T10:49:28;5.40;52.90
9425;DHT22;17139;52.140;11.636;2024-03-08T10:51:57;5.40;52.80
9425;DHT22;17139;52.140;11.636;2024-03-08T10:54:25;5.70;52.20
9425;DHT22;17139;52.140;11.636;2024-03-08T10:56:52;5.70;52.20
9425;DHT22;17139;52.140;11.636;2024-03-08T10:59:18;5.70;52.40
9425;DHT22;17139;52.140;11.636;2024-03-08T11:01:44;6.10;51.40
9425;DHT22;17139;52.140;11.636;2024-03-08T11:04:10;6.10;51.70
9425;DHT22;17139;52.140;11.636;2024-03-08T11:06:42;6.00;52.00
9425;DHT22;17139;52.140;11.636;2024-03-08T11:11:52;6.00;52.40
9425;DHT22;17139;52.140;11.636;2024-03-08T11:14:42;5.90;52.50
9425;DHT22;17139;52.140;11.636;2024-03-08T11:17:08;6.00;52.40
9425;DHT22;17139;52.140;11.636;2024-03-08T11:19:34;6.00;52.60
9425;DHT22;17139;52.140;11.636;2024-03-08T11:22:01;6.00;52.40
9425;DHT22;17139;52.140;11.636;2024-03-08T11:24:37;6.10;52.40
9425;DHT22;17139;52.140;11.636;2024-03-08T11:27:03;6.10;52.30
9425;DHT22;17139;52.140;11.636;2024-03-08T11:29:38;6.10;52.40
9425;DHT22;17139;52.140;11.636;2024-03-08T11:32:05;6.20;52.40
9425;DHT22;17139;52.140;11.636;2024-03-08T11:34:31;6.20;52.40
9425;DHT22;17139;52.140;11.636;2024-03-08T11:36:57;6.30;52.20
9425;DHT22;17139;52.140;11.636;2024-03-08T11:39:23;6.30;52.20
9425;DHT22;17139;52.140;11.636;2024-03-08T11:41:50;6.30;52.30
9425;DHT22;17139;52.140;11.636;2024-03-08T11:44:16;6.30;52.30
9425;DHT22;17139;52.140;11.636;2024-03-08T11:46:42;7.10;48.50
9425;DHT22;17139;52.140;11.636;2024-03-08T11:49:08;7.10;48.40
9425;DHT22;17139;52.140;11.636;2024-03-08T11:51:34;6.90;49.50
9425;DHT22;17139;52.140;11.636;2024-03-08T11:54:00;6.70;50.20
9425;DHT22;17139;52.140;11.636;2024-03-08T11:56:25;6.60;50.60
9425;DHT22;17139;52.140;11.636;2024-03-08T11:58:56;6.60;50.90
9425;DHT22;17139;52.140;11.636;2024-03-08T12:01:22;6.60;50.90
9425;DHT22;17139;52.140;11.636;2024-03-08T12:03:52;6.60;50.90
9425;DHT22;17139;52.140;11.636;2024-03-08T12:06:18;6.60;51.00
9425;DHT22;17139;52.140;11.636;2024-03-08T12:08:46;6.70;51.10
9425;DHT22;17139;52.140;11.636;2024-03-08T12:11:12;6.70;51.10
9425;DHT22;17139;52.140;11.636;2024-03-08T12:13:38;7.20;49.20
9425;DHT22;17139;52.140;11.636;2024-03-08T12:16:05;7.20;49.90
9425;DHT22;17139;52.140;11.636;2024-03-08T12:18:33;7.00;50.30
9425;DHT22;17139;52.140;11.636;2024-03-08T12:21:06;7.40;48.70
9425;DHT22;17139;52.140;11.636;2024-03-08T12:23:34;7.30;49.40
9425;DHT22;17139;52.140;11.636;2024-03-08T12:26:09;7.20;50.10
9425;DHT22;17139;52.140;11.636;2024-03-08T12:28:35;7.20;50.50
9425;DHT22;17139;52.140;11.636;2024-03-08T12:31:01;7.10;50.70
9425;DHT22;17139;52.140;11.636;2024-03-08T12:33:28;7.10;50.80
9425;DHT22;17139;52.140;11.636;2024-03-08T12:35:54;7.00;50.60
9425;DHT22;17139;52.140;11.636;2024-03-08T12:38:21;7.10;50.90
9425;DHT22;17139;52.140;11.636;2024-03-08T12:40:47;7.10;50.90
9425;DHT22;17139;52.140;11.636;2024-03-08T12:43:13;7.10;50.90
9425;DHT22;17139;52.140;11.636;2024-03-08T12:45:39;7.20;50.90
9425;DHT22;17139;52.140;11.636;2024-03-08T12:48:12;7.20;50.80
9425;DHT22;17139;52.140;11.636;2024-03-08T12:50:40;7.20;50.70
9425;DHT22;17139;52.140;11.636;2024-03-08T12:53:18;7.20;50.80
9425;DHT22;17139;52.140;11.636;2024-03-08T12:55:44;7.30;51.30
9425;DHT22;17139;52.140;11.636;2024-03-08T12:58:10;7.30;50.80
9425;DHT22;17139;52.140;11.636;2024-03-08T13:00:36;7.90;48.20
9425;DHT22;17139;52.140;11.636;2024-03-08T13:03:02;7.70;49.30
9425;DHT22;17139;52.140;11.636;2024-03-08T13:05:28;7.60;49.70
9425;DHT22;17139;52.140;11.636;2024-03-08T13:07:55;7.60;50.20
9425;DHT22;17139;52.140;11.636;2024-03-08T13:10:21;7.60;50.40
9425;DHT22;17139;52.140;11.636;2024-03-08T13:12:46;7.60;50.50
9425;DHT22;17139;52.140;11.636;2024-03-08T13:15:12;7.60;50.60
9425;DHT22;17139;52.140;11.636;2024-03-08T13:17:38;7.50;50.60
9425;DHT22;17139;52.140;11.636;2024-03-08T13:20:06;7.50;50.60
9425;DHT22;17139;52.140;11.636;2024-03-08T13:22:32;7.50;50.70
9425;DHT22;17139;52.140;11.636;2024-03-08T13:24:59;7.50;50.60
9425;DHT22;17139;52.140;11.636;2024-03-08T13:27:25;7.50;50.70
9425;DHT22;17139;52.140;11.636;2024-03-08T13:29:51;7.60;50.70
9425;DHT22;17139;52.140;11.636;2024-03-08T13:32:17;7.60;50.80
9425;DHT22;17139;52.140;11.636;2024-03-08T13:34:43;7.70;50.90
9425;DHT22;17139;52.140;11.636;2024-03-08T13:37:09;7.80;49.80
9425;DHT22;17139;52.140;11.636;2024-03-08T13:39:36;7.90;50.30
9425;DHT22;17139;52.140;11.636;2024-03-08T13:42:03;7.90;50.50
9425;DHT22;17139;52.140;11.636;2024-03-08T13:44:29;7.80;50.50
9425;DHT22;17139;52.140;11.636;2024-03-08T13:46:55;7.90;50.60
9425;DHT22;17139;52.140;11.636;2024-03-08T13:49:21;7.90;50.70
9425;DHT22;17139;52.140;11.636;2024-03-08T13:51:47;7.90;50.70
9425;DHT22;17139;52.140;11.636;2024-03-08T13:54:12;7.90;50.60
9425;DHT22;17139;52.140;11.636;2024-03-08T13:56:38;7.90;50.60
9425;DHT22;17139;52.140;11.636;2024-03-08T13:59:06;7.90;50.60
9425;DHT22;17139;52.140;11.636;2024-03-08T14:01:32;7.90;50.60
9425;DHT22;17139;52.140;11.636;2024-03-08T14:03:57;7.90;51.00
9425;DHT22;17139;52.140;11.636;2024-03-08T14:06:23;7.80;50.80
9425;DHT22;17139;52.140;11.636;2024-03-08T14:08:49;7.70;50.80
9425;DHT22;17139;52.140;11.636;2024-03-08T14:11:15;8.30;47.80
9425;DHT22;17139;52.140;11.636;2024-03-08T14:13:41;8.30;49.20
9425;DHT22;17139;52.140;11.636;2024-03-08T14:16:09;8.20;49.60
9425;DHT22;17139;52.140;11.636;2024-03-08T14:18:34;8.30;48.20
9425;DHT22;17139;52.140;11.636;2024-03-08T14:21:00;8.30;49.30
9425;DHT22;17139;52.140;11.636;2024-03-08T14:23:26;8.20;49.60
9425;DHT22;17139;52.140;11.636;2024-03-08T14:25:52;8.10;50.00
9425;DHT22;17139;52.140;11.636;2024-03-08T14:28:18;8.10;50.10
9425;DHT22;17139;52.140;11.636;2024-03-08T14:30:44;8.00;50.10
9425;DHT22;17139;52.140;11.636;2024-03-08T14:33:11;8.00;50.20
9425;DHT22;17139;52.140;11.636;2024-03-08T14:35:37;8.00;50.30
9425;DHT22;17139;52.140;11.636;2024-03-08T14:38:04;8.00;50.30
9425;DHT22;17139;52.140;11.636;2024-03-08T14:40:30;8.10;50.90
9425;DHT22;17139;52.140;11.636;2024-03-08T14:42:56;8.10;50.30
9425;DHT22;17139;52.140;11.636;2024-03-08T14:45:22;8.10;50.30
9425;DHT22;17139;52.140;11.636;2024-03-08T14:47:48;8.10;50.40
9425;DHT22;17139;52.140;11.636;2024-03-08T14:50:15;8.10;50.40
9425;DHT22;17139;52.140;11.636;2024-03-08T14:52:41;8.10;50.30
9425;DHT22;17139;52.140;11.636;2024-03-08T14:55:08;8.00;50.30
9425;DHT22;17139;52.140;11.636;2024-03-08T14:57:34;8.00;50.30
9425;DHT22;17139;52.140;11.636;2024-03-08T15:00:00;8.20;48.70
9425;DHT22;17139;52.140;11.636;2024-03-08T15:02:25;8.20;49.60
9425;DHT22;17139;52.140;11.636;2024-03-08T15:04:51;8.10;50.00
9425;DHT22;17139;52.140;11.636;2024-03-08T15:07:19;8.10;50.10
9425;DHT22;17139;52.140;11.636;2024-03-08T15:09:44;8.00;50.20
9425;DHT22;17139;52.140;11.636;2024-03-08T15:12:10;7.90;50.20
9425;DHT22;17139;52.140;11.636;2024-03-08T15:14:40;7.90;50.50
9425;DHT22;17139;52.140;11.636;2024-03-08T15:17:05;7.90;50.60
9425;DHT22;17139;52.140;11.636;2024-03-08T15:19:31;7.80;50.70
9425;DHT22;17139;52.140;11.636;2024-03-08T15:21:57;7.80;50.60
9425;DHT22;17139;52.140;11.636;2024-03-08T15:24:24;7.70;50.70
9425;DHT22;17139;52.140;11.636;2024-03-08T15:26:50;7.70;50.60
9425;DHT22;17139;52.140;11.636;2024-03-08T15:29:16;7.70;50.60
9425;DHT22;17139;52.140;11.636;2024-03-08T15:31:42;7.70;50.70
9425;DHT22;17139;52.140;11.636;2024-03-08T15:34:07;7.80;50.10
9425;DHT22;17139;52.140;11.636;2024-03-08T15:36:33;7.70;50.30
9425;DHT22;17139;52.140;11.636;2024-03-08T15:38:59;7.60;50.40